createdAt,value
2023-04-02T00:00:43.749Z,91977.00
2023-04-02T00:01:43.887Z,91979.00
2023-04-02T00:02:43.869Z,91977.00
2023-04-02T00:03:44.014Z,91979.00
2023-04-02T00:04:43.942Z,91981.00
2023-04-02T00:05:43.979Z,91981.00
2023-04-02T00:06:44.047Z,91981.00
2023-04-02T00:07:44.085Z,91981.00
2023-04-02T00:08:44.122Z,91983.00
2023-04-02T00:09:44.177Z,91981.00
2023-04-02T00:10:44.213Z,91983.00
2023-04-02T00:11:44.263Z,91979.00
2023-04-02T00:12:44.312Z,91979.00
2023-04-02T00:13:44.356Z,91977.00
2023-04-02T00:14:44.384Z,91977.00
2023-04-02T00:15:44.428Z,91977.00
2023-04-02T00:16:44.509Z,91977.00
2023-04-02T00:17:44.524Z,91975.00
2023-04-02T00:18:44.568Z,91975.00
2023-04-02T00:19:44.612Z,91971.00
2023-04-02T00:20:44.671Z,91973.00
2023-04-02T00:21:44.711Z,91969.00
2023-04-02T00:22:44.770Z,91969.00
2023-04-02T00:23:44.832Z,91969.00
2023-04-02T00:24:44.893Z,91965.00
2023-04-02T00:25:44.929Z,91963.00
2023-04-02T00:26:44.975Z,91963.00
2023-04-02T00:27:45.024Z,91959.00
2023-04-02T00:28:45.080Z,91961.00
2023-04-02T00:29:45.108Z,91961.00
2023-04-02T00:30:45.174Z,91965.00
2023-04-02T00:31:45.242Z,91967.00
2023-04-02T00:32:45.287Z,91967.00
2023-04-02T00:33:45.317Z,91965.00
2023-04-02T00:34:45.367Z,91969.00
2023-04-02T00:35:45.430Z,91971.00
2023-04-02T00:36:45.475Z,91969.00
2023-04-02T00:37:45.542Z,91969.00
2023-04-02T00:38:46.817Z,91969.00
2023-04-02T00:39:45.828Z,91969.00
2023-04-02T00:40:45.876Z,91969.00
2023-04-02T00:41:45.934Z,91969.00
2023-04-02T00:42:45.987Z,91971.00
2023-04-02T00:43:46.027Z,91969.00
2023-04-02T00:44:46.076Z,91969.00
2023-04-02T00:45:46.134Z,91969.00
2023-04-02T00:46:46.177Z,91969.00
2023-04-02T00:47:46.270Z,91967.00
2023-04-02T00:48:46.283Z,91967.00
2023-04-02T00:49:46.334Z,91969.00
2023-04-02T00:50:46.378Z,91965.00
2023-04-02T00:51:46.445Z,91969.00
2023-04-02T00:52:46.520Z,91969.00
2023-04-02T00:53:46.540Z,91967.00
2023-04-02T00:54:46.594Z,91965.00
2023-04-02T00:55:46.652Z,91969.00
2023-04-02T00:56:46.715Z,91965.00
2023-04-02T00:57:46.774Z,91967.00
2023-04-02T00:58:46.820Z,91967.00
2023-04-02T00:59:46.872Z,91969.00
2023-04-02T01:00:46.925Z,91967.00
2023-04-02T01:01:47.072Z,91967.00
2023-04-02T01:02:47.156Z,91969.00
2023-04-02T01:03:47.114Z,91969.00
2023-04-02T01:04:47.160Z,91965.00
2023-04-02T01:05:47.220Z,91967.00
2023-04-02T01:06:47.271Z,91969.00
2023-04-02T01:07:47.361Z,91969.00
2023-04-02T01:08:47.410Z,91969.00
2023-04-02T01:09:47.444Z,91969.00
2023-04-02T01:10:47.509Z,91973.00
2023-04-02T01:11:47.580Z,91973.00
2023-04-02T01:12:47.635Z,91971.00
2023-04-02T01:13:47.697Z,91975.00
2023-04-02T01:14:47.767Z,91973.00
2023-04-02T01:15:47.834Z,91973.00
2023-04-02T01:16:47.862Z,91977.00
2023-04-02T01:17:47.927Z,91979.00
2023-04-02T01:18:47.977Z,91979.00
2023-04-02T01:19:48.040Z,91977.00
2023-04-02T01:20:48.107Z,91983.00
2023-04-02T01:21:48.153Z,91979.00
2023-04-02T01:22:48.272Z,91985.00
2023-04-02T01:23:48.265Z,91985.00
2023-04-02T01:24:48.317Z,91985.00
2023-04-02T01:25:48.382Z,91985.00
2023-04-02T01:26:48.443Z,91985.00
2023-04-02T01:27:48.500Z,91985.00
2023-04-02T01:28:48.567Z,91985.00
2023-04-02T01:29:48.624Z,91988.00
2023-04-02T01:30:48.665Z,91988.00
2023-04-02T01:31:48.813Z,91990.00
2023-04-02T01:32:48.783Z,91992.00
2023-04-02T01:33:48.845Z,91992.00
2023-04-02T01:34:48.904Z,91994.00
2023-04-02T01:35:49.002Z,91992.00
2023-04-02T01:36:49.017Z,91996.00
2023-04-02T01:37:49.072Z,91996.00
2023-04-02T01:38:49.133Z,91996.00
2023-04-02T01:39:49.191Z,91998.00
2023-04-02T01:40:49.250Z,91998.00
2023-04-02T01:41:49.324Z,91996.00
2023-04-02T01:42:49.386Z,91998.00
2023-04-02T01:43:49.434Z,91998.00
2023-04-02T01:44:49.495Z,92002.00
2023-04-02T01:45:49.550Z,92004.00
2023-04-02T01:46:49.696Z,92002.00
2023-04-02T01:47:49.697Z,92004.00
2023-04-02T01:48:49.730Z,92006.00
2023-04-02T01:49:49.789Z,92004.00
2023-04-02T01:50:49.865Z,92004.00
2023-04-02T01:51:49.907Z,92006.00
2023-04-02T01:52:49.983Z,92006.00
2023-04-02T01:53:50.034Z,92004.00
2023-04-02T01:54:50.097Z,92006.00
2023-04-02T01:55:50.145Z,92006.00
2023-04-02T01:56:50.231Z,92004.00
2023-04-02T01:57:50.278Z,92004.00
2023-04-02T01:58:50.328Z,92002.00
2023-04-02T01:59:50.395Z,92006.00
2023-04-02T02:00:50.505Z,92006.00
2023-04-02T02:01:50.520Z,92006.00
2023-04-02T02:02:50.612Z,92006.00
2023-04-02T02:03:50.634Z,92008.00
2023-04-02T02:04:50.709Z,92008.00
2023-04-02T02:05:50.879Z,92012.00
2023-04-02T02:06:50.836Z,92012.00
2023-04-02T02:07:50.900Z,92016.00
2023-04-02T02:08:50.949Z,92016.00
2023-04-02T02:09:51.032Z,92018.00
2023-04-02T02:10:51.071Z,92018.00
2023-04-02T02:11:51.135Z,92018.00
2023-04-02T02:12:51.217Z,92020.00
2023-04-02T02:13:51.260Z,92018.00
2023-04-02T02:14:51.337Z,92018.00
2023-04-02T02:15:51.387Z,92020.00
2023-04-02T02:16:51.455Z,92022.00
2023-04-02T02:17:51.530Z,92020.00
2023-04-02T02:18:51.579Z,92022.00
2023-04-02T02:19:51.651Z,92024.00
2023-04-02T02:20:51.703Z,92028.00
2023-04-02T02:21:51.768Z,92028.00
2023-04-02T02:22:51.831Z,92026.00
2023-04-02T02:23:51.894Z,92032.00
2023-04-02T02:24:51.954Z,92034.00
2023-04-02T02:25:52.011Z,92036.00
2023-04-02T02:26:52.076Z,92034.00
2023-04-02T02:27:52.141Z,92038.00
2023-04-02T02:28:52.197Z,92034.00
2023-04-02T02:29:52.269Z,92034.00
2023-04-02T02:30:52.333Z,92038.00
2023-04-02T02:31:52.431Z,92040.00
2023-04-02T02:32:52.516Z,92038.00
2023-04-02T02:33:52.531Z,92038.00
2023-04-02T02:34:52.584Z,92036.00
2023-04-02T02:35:52.759Z,92038.00
2023-04-02T02:36:52.708Z,92036.00
2023-04-02T02:37:52.772Z,92040.00
2023-04-02T02:38:54.347Z,92040.00
2023-04-02T02:39:52.898Z,92038.00
2023-04-02T02:40:52.973Z,92040.00
2023-04-02T02:41:53.020Z,92038.00
2023-04-02T02:42:53.083Z,92040.00
2023-04-02T02:43:53.153Z,92041.00
2023-04-02T02:44:53.213Z,92043.00
2023-04-02T02:45:53.298Z,92045.00
2023-04-02T02:46:53.344Z,92047.00
2023-04-02T02:47:53.430Z,92045.00
2023-04-02T02:48:53.453Z,92049.00
2023-04-02T02:49:53.509Z,92051.00
2023-04-02T02:50:53.586Z,92049.00
2023-04-02T02:51:53.639Z,92051.00
2023-04-02T02:52:53.708Z,92053.00
2023-04-02T02:53:53.767Z,92055.00
2023-04-02T02:54:53.827Z,92061.00
2023-04-02T02:55:53.900Z,92061.00
2023-04-02T02:56:53.992Z,92055.00
2023-04-02T02:57:54.026Z,92055.00
2023-04-02T02:58:54.095Z,92061.00
2023-04-02T02:59:54.154Z,92061.00
2023-04-02T03:00:54.227Z,92059.00
2023-04-02T03:01:54.282Z,92061.00
2023-04-02T03:02:54.427Z,92061.00
2023-04-02T03:03:54.552Z,92061.00
2023-04-02T03:04:54.463Z,92065.00
2023-04-02T03:05:54.535Z,92063.00
2023-04-02T03:06:54.600Z,92063.00
2023-04-02T03:07:54.659Z,92065.00
2023-04-02T03:08:54.712Z,92061.00
2023-04-02T03:09:54.769Z,92065.00
2023-04-02T03:10:54.841Z,92063.00
2023-04-02T03:11:54.916Z,92063.00
2023-04-02T03:12:54.984Z,92063.00
2023-04-02T03:13:55.041Z,92065.00
2023-04-02T03:14:55.110Z,92065.00
2023-04-02T03:15:55.216Z,92065.00
2023-04-02T03:16:55.243Z,92069.00
2023-04-02T03:17:55.336Z,92069.00
2023-04-02T03:18:55.357Z,92069.00
2023-04-02T03:19:55.415Z,92067.00
2023-04-02T03:20:55.461Z,92067.00
2023-04-02T03:21:55.511Z,92069.00
2023-04-02T03:22:55.554Z,92071.00
2023-04-02T03:23:55.597Z,92071.00
2023-04-02T03:24:55.647Z,92067.00
2023-04-02T03:25:55.724Z,92069.00
2023-04-02T03:26:55.776Z,92071.00
2023-04-02T03:27:55.816Z,92073.00
2023-04-02T03:28:55.895Z,92071.00
2023-04-02T03:29:55.936Z,92069.00
2023-04-02T03:30:56.010Z,92071.00
2023-04-02T03:31:56.052Z,92071.00
2023-04-02T03:32:56.144Z,92073.00
2023-04-02T03:33:56.190Z,92073.00
2023-04-02T03:34:56.252Z,92075.00
2023-04-02T03:35:56.389Z,92075.00
2023-04-02T03:36:56.394Z,92077.00
2023-04-02T03:37:56.453Z,92079.00
2023-04-02T03:38:56.520Z,92081.00
2023-04-02T03:39:56.591Z,92081.00
2023-04-02T03:40:56.625Z,92083.00
2023-04-02T03:41:56.691Z,92083.00
2023-04-02T03:42:56.720Z,92083.00
2023-04-02T03:43:56.756Z,92083.00
2023-04-02T03:44:56.803Z,92083.00
2023-04-02T03:45:56.867Z,92085.00
2023-04-02T03:46:56.929Z,92085.00
2023-04-02T03:47:57.010Z,92083.00
2023-04-02T03:48:57.041Z,92087.00
2023-04-02T03:49:57.089Z,92087.00
2023-04-02T03:50:57.153Z,92087.00
2023-04-02T03:51:57.216Z,92094.00
2023-04-02T03:52:57.276Z,92096.00
2023-04-02T03:53:57.339Z,92096.00
2023-04-02T03:54:57.389Z,92098.00
2023-04-02T03:55:57.448Z,92094.00
2023-04-02T03:56:57.567Z,92096.00
2023-04-02T03:57:57.575Z,92098.00
2023-04-02T03:58:57.631Z,92096.00
2023-04-02T03:59:57.705Z,92096.00
2023-04-02T04:00:57.757Z,92098.00
2023-04-02T04:01:57.838Z,92100.00
2023-04-02T04:02:57.927Z,92100.00
2023-04-02T04:03:58.014Z,92102.00
2023-04-02T04:04:58.015Z,92104.00
2023-04-02T04:05:58.081Z,92104.00
2023-04-02T04:06:58.137Z,92108.00
2023-04-02T04:07:58.225Z,92106.00
2023-04-02T04:08:58.275Z,92106.00
2023-04-02T04:09:58.337Z,92110.00
2023-04-02T04:10:58.442Z,92108.00
2023-04-02T04:11:58.451Z,92112.00
2023-04-02T04:12:58.815Z,92114.00
2023-04-02T04:13:58.552Z,92114.00
2023-04-02T04:14:58.629Z,92116.00
2023-04-02T04:15:58.693Z,92119.00
2023-04-02T04:16:58.727Z,92121.00
2023-04-02T04:17:58.757Z,92123.00
2023-04-02T04:18:58.785Z,92125.00
2023-04-02T04:19:58.848Z,92123.00
2023-04-02T04:20:58.893Z,92123.00
2023-04-02T04:21:58.936Z,92129.00
2023-04-02T04:22:58.997Z,92127.00
2023-04-02T04:23:59.023Z,92133.00
2023-04-02T04:24:59.081Z,92131.00
2023-04-02T04:25:59.130Z,92133.00
2023-04-02T04:26:59.319Z,92133.00
2023-04-02T04:27:59.261Z,92133.00
2023-04-02T04:28:59.302Z,92133.00
2023-04-02T04:29:59.352Z,92133.00
2023-04-02T04:30:59.394Z,92135.00
2023-04-02T04:31:59.503Z,92135.00
2023-04-02T04:32:59.531Z,92135.00
2023-04-02T04:33:59.580Z,92139.00
2023-04-02T04:34:59.624Z,92141.00
2023-04-02T04:35:59.651Z,92143.00
2023-04-02T04:36:59.651Z,92145.00
2023-04-02T04:37:59.692Z,92147.00
2023-04-02T04:38:59.712Z,92149.00
2023-04-02T04:39:59.749Z,92153.00
2023-04-02T04:40:59.800Z,92151.00
2023-04-02T04:41:59.862Z,92155.00
2023-04-02T04:42:59.917Z,92153.00
2023-04-02T04:43:59.934Z,92153.00
2023-04-02T04:44:59.971Z,92153.00
2023-04-02T04:46:00.074Z,92155.00
2023-04-02T04:47:00.044Z,92155.00
2023-04-02T04:48:00.203Z,92159.00
2023-04-02T04:49:00.154Z,92157.00
2023-04-02T04:50:00.187Z,92163.00
2023-04-02T04:51:00.242Z,92166.00
2023-04-02T04:52:00.301Z,92168.00
2023-04-02T04:53:00.338Z,92168.00
2023-04-02T04:54:00.380Z,92172.00
2023-04-02T04:55:00.426Z,92174.00
2023-04-02T04:56:12.559Z,92174.00
2023-04-02T04:57:01.466Z,92174.00
2023-04-02T04:58:00.463Z,92172.00
2023-04-02T04:59:00.436Z,92178.00
2023-04-02T05:00:00.433Z,92178.00
2023-04-02T05:01:00.427Z,92174.00
2023-04-02T05:02:00.421Z,92180.00
2023-04-02T05:03:00.423Z,92178.00
2023-04-02T05:04:00.417Z,92182.00
2023-04-02T05:05:00.460Z,92186.00
2023-04-02T05:06:00.396Z,92188.00
2023-04-02T05:07:00.407Z,92188.00
2023-04-02T05:08:00.393Z,92190.00
2023-04-02T05:09:00.394Z,92190.00
2023-04-02T05:10:00.388Z,92192.00
2023-04-02T05:11:00.406Z,92190.00
2023-04-02T05:12:00.442Z,92192.00
2023-04-02T05:13:00.468Z,92192.00
2023-04-02T05:14:00.494Z,92190.00
2023-04-02T05:15:00.546Z,92192.00
2023-04-02T05:16:01.434Z,92194.00
2023-04-02T05:17:00.592Z,92194.00
2023-04-02T05:18:00.628Z,92190.00
2023-04-02T05:19:00.634Z,92190.00
2023-04-02T05:20:00.636Z,92192.00
2023-04-02T05:21:00.660Z,92194.00
2023-04-02T05:22:00.669Z,92194.00
2023-04-02T05:23:00.681Z,92196.00
2023-04-02T05:24:00.697Z,92198.00
2023-04-02T05:25:00.718Z,92198.00
2023-04-02T05:26:00.709Z,92202.00
2023-04-02T05:27:00.746Z,92204.00
2023-04-02T05:28:00.741Z,92202.00
2023-04-02T05:29:00.753Z,92204.00
2023-04-02T05:30:01.023Z,92206.00
2023-04-02T05:31:00.875Z,92204.00
2023-04-02T05:32:00.801Z,92206.00
2023-04-02T05:33:00.852Z,92208.00
2023-04-02T05:34:00.814Z,92206.00
2023-04-02T05:35:00.854Z,92208.00
2023-04-02T05:36:00.900Z,92210.00
2023-04-02T05:37:00.884Z,92210.00
2023-04-02T05:38:00.910Z,92210.00
2023-04-02T05:39:00.944Z,92210.00
2023-04-02T05:40:00.988Z,92211.00
2023-04-02T05:41:00.995Z,92211.00
2023-04-02T05:42:01.040Z,92213.00
2023-04-02T05:43:01.073Z,92215.00
2023-04-02T05:44:01.127Z,92217.00
2023-04-02T05:45:01.200Z,92217.00
2023-04-02T05:46:01.197Z,92217.00
2023-04-02T05:47:01.315Z,92221.00
2023-04-02T05:48:01.273Z,92221.00
2023-04-02T05:49:01.314Z,92221.00
2023-04-02T05:50:01.361Z,92221.00
2023-04-02T05:51:01.385Z,92221.00
2023-04-02T05:52:01.399Z,92223.00
2023-04-02T05:53:01.429Z,92223.00
2023-04-02T05:54:01.474Z,92223.00
2023-04-02T05:55:01.511Z,92221.00
2023-04-02T05:56:01.576Z,92225.00
2023-04-02T05:57:01.629Z,92223.00
2023-04-02T05:58:29.437Z,92221.00
2023-04-02T05:59:02.615Z,92223.00
2023-04-02T06:00:01.593Z,92221.00
2023-04-02T06:01:01.598Z,92223.00
2023-04-02T06:02:01.614Z,92221.00
2023-04-02T06:03:01.638Z,92221.00
2023-04-02T06:04:01.625Z,92221.00
2023-04-02T06:05:01.592Z,92223.00
2023-04-02T06:06:01.600Z,92223.00
2023-04-02T06:07:01.587Z,92227.00
2023-04-02T06:08:01.574Z,92225.00
2023-04-02T06:09:01.559Z,92229.00
2023-04-02T06:10:01.579Z,92227.00
2023-04-02T06:11:01.560Z,92227.00
2023-04-02T06:12:01.568Z,92229.00
2023-04-02T06:13:01.599Z,92231.00
2023-04-02T06:14:01.631Z,92229.00
2023-04-02T06:15:01.659Z,92231.00
2023-04-02T06:16:01.727Z,92231.00
2023-04-02T06:17:01.817Z,92229.00
2023-04-02T06:18:01.875Z,92229.00
2023-04-02T06:19:01.878Z,92229.00
2023-04-02T06:20:01.923Z,92229.00
2023-04-02T06:21:01.950Z,92231.00
2023-04-02T06:22:02.026Z,92229.00
2023-04-02T06:23:02.029Z,92229.00
2023-04-02T06:24:02.075Z,92229.00
2023-04-02T06:25:02.097Z,92231.00
2023-04-02T06:26:02.120Z,92231.00
2023-04-02T06:27:02.160Z,92231.00
2023-04-02T06:28:02.180Z,92231.00
2023-04-02T06:29:02.210Z,92231.00
2023-04-02T06:30:02.251Z,92233.00
2023-04-02T06:31:02.356Z,92233.00
2023-04-02T06:32:02.383Z,92235.00
2023-04-02T06:33:02.494Z,92233.00
2023-04-02T06:34:02.511Z,92231.00
2023-04-02T06:35:02.550Z,92233.00
2023-04-02T06:36:02.623Z,92235.00
2023-04-02T06:37:02.660Z,92233.00
2023-04-02T06:38:02.743Z,92235.00
2023-04-02T06:39:02.852Z,92235.00
2023-04-02T06:40:02.762Z,92237.00
2023-04-02T06:41:02.817Z,92237.00
2023-04-02T06:42:02.868Z,92235.00
2023-04-02T06:43:02.905Z,92237.00
2023-04-02T06:44:02.928Z,92237.00
2023-04-02T06:45:02.953Z,92239.00
2023-04-02T06:46:03.047Z,92239.00
2023-04-02T06:47:03.041Z,92241.00
2023-04-02T06:48:03.122Z,92241.00
2023-04-02T06:49:03.129Z,92241.00
2023-04-02T06:50:03.191Z,92239.00
2023-04-02T06:51:03.234Z,92237.00
2023-04-02T06:52:03.294Z,92239.00
2023-04-02T06:53:03.347Z,92239.00
2023-04-02T06:54:03.405Z,92241.00
2023-04-02T06:55:03.499Z,92239.00
2023-04-02T06:56:03.531Z,92239.00
2023-04-02T06:57:03.596Z,92241.00
2023-04-02T06:58:03.644Z,92239.00
2023-04-02T06:59:03.705Z,92245.00
2023-04-02T07:00:03.771Z,92245.00
2023-04-02T07:01:03.861Z,92247.00
2023-04-02T07:02:03.889Z,92245.00
2023-04-02T07:03:04.085Z,92243.00
2023-04-02T07:04:04.006Z,92245.00
2023-04-02T07:05:04.114Z,92245.00
2023-04-02T07:06:04.115Z,92241.00
2023-04-02T07:07:04.178Z,92241.00
2023-04-02T07:08:04.226Z,92239.00
2023-04-02T07:09:04.313Z,92241.00
2023-04-02T07:10:04.331Z,92239.00
2023-04-02T07:11:04.383Z,92241.00
2023-04-02T07:12:04.465Z,92241.00
2023-04-02T07:13:04.502Z,92241.00
2023-04-02T07:14:04.554Z,92237.00
2023-04-02T07:15:04.604Z,92239.00
2023-04-02T07:16:04.699Z,92237.00
2023-04-02T07:17:04.704Z,92239.00
2023-04-02T07:18:04.788Z,92243.00
2023-04-02T07:19:04.805Z,92241.00
2023-04-02T07:20:04.862Z,92241.00
2023-04-02T07:21:04.920Z,92241.00
2023-04-02T07:22:04.966Z,92243.00
2023-04-02T07:23:05.025Z,92243.00
2023-04-02T07:24:05.071Z,92241.00
2023-04-02T07:25:05.114Z,92241.00
2023-04-02T07:26:05.156Z,92245.00
2023-04-02T07:27:05.201Z,92241.00
2023-04-02T07:28:05.274Z,92245.00
2023-04-02T07:29:05.321Z,92243.00
2023-04-02T07:30:05.360Z,92245.00
2023-04-02T07:31:05.434Z,92245.00
2023-04-02T07:32:05.436Z,92243.00
2023-04-02T07:33:05.534Z,92241.00
2023-04-02T07:34:05.576Z,92243.00
2023-04-02T07:35:05.595Z,92243.00
2023-04-02T07:36:05.649Z,92243.00
2023-04-02T07:37:05.685Z,92241.00
2023-04-02T07:38:05.739Z,92243.00
2023-04-02T07:39:05.788Z,92241.00
2023-04-02T07:40:05.841Z,92241.00
2023-04-02T07:41:05.874Z,92243.00
2023-04-02T07:42:05.942Z,92243.00
2023-04-02T07:43:05.980Z,92241.00
2023-04-02T07:44:06.022Z,92243.00
2023-04-02T07:45:06.254Z,92241.00
2023-04-02T07:46:06.130Z,92241.00
2023-04-02T07:47:06.217Z,92241.00
2023-04-02T07:48:06.260Z,92241.00
2023-04-02T07:49:06.241Z,92243.00
2023-04-02T07:50:06.278Z,92243.00
2023-04-02T07:51:06.325Z,92243.00
2023-04-02T07:52:06.379Z,92243.00
2023-04-02T07:53:06.408Z,92241.00
2023-04-02T07:54:06.460Z,92241.00
2023-04-02T07:55:06.489Z,92241.00
2023-04-02T07:56:06.536Z,92241.00
2023-04-02T07:57:06.651Z,92241.00
2023-04-02T07:58:06.627Z,92239.00
2023-04-02T07:59:06.729Z,92237.00
2023-04-02T08:00:06.711Z,92239.00
2023-04-02T08:01:06.741Z,92237.00
2023-04-02T08:02:06.845Z,92237.00
2023-04-02T08:03:06.940Z,92235.00
2023-04-02T08:04:06.905Z,92235.00
2023-04-02T08:05:06.926Z,92233.00
2023-04-02T08:06:06.955Z,92235.00
2023-04-02T08:07:07.014Z,92235.00
2023-04-02T08:08:07.037Z,92235.00
2023-04-02T08:09:07.076Z,92233.00
2023-04-02T08:10:07.106Z,92235.00
2023-04-02T08:11:07.148Z,92237.00
2023-04-02T08:12:07.183Z,92235.00
2023-04-02T08:13:07.224Z,92235.00
2023-04-02T08:14:07.270Z,92239.00
2023-04-02T08:15:07.311Z,92237.00
2023-04-02T08:16:07.382Z,92241.00
2023-04-02T08:17:07.382Z,92241.00
2023-04-02T08:18:07.480Z,92241.00
2023-04-02T08:19:07.473Z,92241.00
2023-04-02T08:20:07.547Z,92241.00
2023-04-02T08:21:07.570Z,92243.00
2023-04-02T08:22:07.613Z,92243.00
2023-04-02T08:23:07.654Z,92243.00
2023-04-02T08:24:07.713Z,92241.00
2023-04-02T08:25:07.760Z,92241.00
2023-04-02T08:26:07.796Z,92243.00
2023-04-02T08:27:07.826Z,92245.00
2023-04-02T08:28:07.871Z,92245.00
2023-04-02T08:29:07.936Z,92243.00
2023-04-02T08:30:07.952Z,92247.00
2023-04-02T08:31:08.081Z,92247.00
2023-04-02T08:32:08.030Z,92245.00
2023-04-02T08:33:08.122Z,92247.00
2023-04-02T08:34:08.134Z,92243.00
2023-04-02T08:35:08.182Z,92247.00
2023-04-02T08:36:08.247Z,92247.00
2023-04-02T08:37:08.253Z,92249.00
2023-04-02T08:38:08.298Z,92249.00
2023-04-02T08:39:08.349Z,92247.00
2023-04-02T08:40:08.394Z,92251.00
2023-04-02T08:41:08.424Z,92249.00
2023-04-02T08:42:08.475Z,92249.00
2023-04-02T08:43:08.523Z,92249.00
2023-04-02T08:44:08.550Z,92249.00
2023-04-02T08:45:23.010Z,92249.00
2023-04-02T08:46:09.685Z,92249.00
2023-04-02T08:47:08.571Z,92251.00
2023-04-02T08:48:08.586Z,92249.00
2023-04-02T08:49:08.572Z,92247.00
2023-04-02T08:50:08.567Z,92249.00
2023-04-02T08:51:08.572Z,92249.00
2023-04-02T08:52:08.548Z,92247.00
2023-04-02T08:53:08.550Z,92247.00
2023-04-02T08:54:08.559Z,92249.00
2023-04-02T08:55:08.558Z,92245.00
2023-04-02T08:56:08.620Z,92243.00
2023-04-02T08:57:08.606Z,92245.00
2023-04-02T08:58:08.570Z,92247.00
2023-04-02T08:59:08.607Z,92243.00
2023-04-02T09:00:08.646Z,92247.00
2023-04-02T09:01:08.746Z,92243.00
2023-04-02T09:02:08.727Z,92243.00
2023-04-02T09:03:08.797Z,92245.00
2023-04-02T09:04:08.817Z,92247.00
2023-04-02T09:05:08.903Z,92245.00
2023-04-02T09:06:08.896Z,92247.00
2023-04-02T09:07:08.944Z,92247.00
2023-04-02T09:08:09.015Z,92249.00
2023-04-02T09:09:09.039Z,92247.00
2023-04-02T09:10:09.076Z,92247.00
2023-04-02T09:11:09.136Z,92249.00
2023-04-02T09:12:09.165Z,92251.00
2023-04-02T09:13:09.215Z,92251.00
2023-04-02T09:14:09.246Z,92253.00
2023-04-02T09:15:09.292Z,92255.00
2023-04-02T09:16:09.413Z,92255.00
2023-04-02T09:17:09.370Z,92253.00
2023-04-02T09:18:09.426Z,92257.00
2023-04-02T09:19:09.450Z,92255.00
2023-04-02T09:20:09.484Z,92255.00
2023-04-02T09:21:09.567Z,92257.00
2023-04-02T09:22:09.596Z,92255.00
2023-04-02T09:23:09.630Z,92257.00
2023-04-02T09:24:09.646Z,92257.00
2023-04-02T09:25:09.702Z,92255.00
2023-04-02T09:26:09.743Z,92257.00
2023-04-02T09:27:09.782Z,92258.00
2023-04-02T09:28:09.822Z,92257.00
2023-04-02T09:29:09.858Z,92258.00
2023-04-02T09:30:09.900Z,92257.00
2023-04-02T09:31:09.948Z,92257.00
2023-04-02T09:32:09.970Z,92262.00
2023-04-02T09:33:10.117Z,92260.00
2023-04-02T09:34:10.022Z,92260.00
2023-04-02T09:35:22.432Z,92262.00
2023-04-02T09:36:11.061Z,92262.00
2023-04-02T09:37:10.035Z,92260.00
2023-04-02T09:38:10.056Z,92264.00
2023-04-02T09:39:10.013Z,92264.00
2023-04-02T09:40:10.011Z,92264.00
2023-04-02T09:41:10.015Z,92266.00
2023-04-02T09:42:10.009Z,92266.00
2023-04-02T09:43:09.999Z,92268.00
2023-04-02T09:44:09.993Z,92268.00
2023-04-02T09:45:09.995Z,92266.00
2023-04-02T09:46:10.007Z,92270.00
2023-04-02T09:47:09.992Z,92274.00
2023-04-02T09:48:09.998Z,92270.00
2023-04-02T09:49:09.968Z,92272.00
2023-04-02T09:50:09.978Z,92272.00
2023-04-02T09:51:09.993Z,92276.00
2023-04-02T09:52:10.021Z,92276.00
2023-04-02T09:53:10.067Z,92278.00
2023-04-02T09:54:10.097Z,92280.00
2023-04-02T09:55:10.133Z,92278.00
2023-04-02T09:56:10.138Z,92280.00
2023-04-02T09:57:10.198Z,92280.00
2023-04-02T09:58:10.214Z,92280.00
2023-04-02T09:59:10.243Z,92280.00
2023-04-02T10:00:18.327Z,92280.00
2023-04-02T10:01:11.288Z,92280.00
2023-04-02T10:02:10.249Z,92278.00
2023-04-02T10:03:10.249Z,92278.00
2023-04-02T10:04:10.272Z,92278.00
2023-04-02T10:05:10.225Z,92276.00
2023-04-02T10:06:10.239Z,92278.00
2023-04-02T10:07:10.232Z,92280.00
2023-04-02T10:08:10.217Z,92280.00
2023-04-02T10:09:10.209Z,92282.00
2023-04-02T10:10:10.192Z,92282.00
2023-04-02T10:11:10.184Z,92280.00
2023-04-02T10:12:10.156Z,92284.00
2023-04-02T10:13:10.157Z,92282.00
2023-04-02T10:14:10.140Z,92284.00
2023-04-02T10:15:10.154Z,92288.00
2023-04-02T10:16:10.235Z,92286.00
2023-04-02T10:17:10.248Z,92284.00
2023-04-02T10:18:10.242Z,92288.00
2023-04-02T10:19:10.254Z,92288.00
2023-04-02T10:20:10.268Z,92286.00
2023-04-02T10:21:10.296Z,92286.00
2023-04-02T10:22:10.316Z,92286.00
2023-04-02T10:23:10.342Z,92288.00
2023-04-02T10:24:10.383Z,92286.00
2023-04-02T10:25:10.400Z,92286.00
2023-04-02T10:26:10.429Z,92288.00
2023-04-02T10:27:10.454Z,92286.00
2023-04-02T10:28:10.478Z,92286.00
2023-04-02T10:29:10.546Z,92286.00
2023-04-02T10:30:10.552Z,92284.00
2023-04-02T10:31:10.583Z,92288.00
2023-04-02T10:32:10.589Z,92290.00
2023-04-02T10:33:10.626Z,92286.00
2023-04-02T10:34:10.629Z,92286.00
2023-04-02T10:35:10.672Z,92288.00
2023-04-02T10:36:10.713Z,92288.00
2023-04-02T10:37:10.714Z,92284.00
2023-04-02T10:38:10.741Z,92286.00
2023-04-02T10:39:10.768Z,92288.00
2023-04-02T10:40:10.800Z,92290.00
2023-04-02T10:41:10.803Z,92290.00
2023-04-02T10:42:10.825Z,92292.00
2023-04-02T10:43:10.869Z,92290.00
2023-04-02T10:44:19.522Z,92296.00
2023-04-02T10:45:11.873Z,92294.00
2023-04-02T10:46:10.874Z,92292.00
2023-04-02T10:47:10.858Z,92296.00
2023-04-02T10:48:10.897Z,92294.00
2023-04-02T10:49:10.854Z,92296.00
2023-04-02T10:50:10.860Z,92296.00
2023-04-02T10:51:10.855Z,92298.00
2023-04-02T10:52:10.817Z,92296.00
2023-04-02T10:53:10.807Z,92294.00
2023-04-02T10:54:10.800Z,92294.00
2023-04-02T10:55:10.799Z,92296.00
2023-04-02T10:56:10.790Z,92296.00
2023-04-02T10:57:10.871Z,92298.00
2023-04-02T10:58:10.769Z,92296.00
2023-04-02T10:59:10.770Z,92296.00
2023-04-02T11:00:10.789Z,92296.00
2023-04-02T11:01:10.751Z,92296.00
2023-04-02T11:02:10.744Z,92298.00
2023-04-02T11:03:10.786Z,92296.00
2023-04-02T11:04:11.223Z,92298.00
2023-04-02T11:05:10.830Z,92300.00
2023-04-02T11:06:12.028Z,92296.00
2023-04-02T11:07:14.885Z,92296.00
2023-04-02T11:08:10.846Z,92298.00
2023-04-02T11:09:10.841Z,92296.00
2023-04-02T11:10:10.862Z,92296.00
2023-04-02T11:11:10.808Z,92294.00
2023-04-02T11:12:10.777Z,92294.00
2023-04-02T11:13:10.762Z,92294.00
2023-04-02T11:14:10.769Z,92292.00
2023-04-02T11:15:10.746Z,92296.00
2023-04-02T11:16:10.764Z,92296.00
2023-04-02T11:17:10.716Z,92296.00
2023-04-02T11:18:10.704Z,92294.00
2023-04-02T11:19:10.698Z,92296.00
2023-04-02T11:20:10.719Z,92296.00
2023-04-02T11:21:10.694Z,92298.00
2023-04-02T11:22:10.669Z,92296.00
2023-04-02T11:23:10.681Z,92300.00
2023-04-02T11:24:10.648Z,92298.00
2023-04-02T11:25:10.649Z,92300.00
2023-04-02T11:26:10.632Z,92304.00
2023-04-02T11:27:10.609Z,92304.00
2023-04-02T11:28:10.595Z,92302.00
2023-04-02T11:29:10.579Z,92308.00
2023-04-02T11:30:10.622Z,92306.00
2023-04-02T11:31:10.714Z,92306.00
2023-04-02T11:32:10.545Z,92308.00
2023-04-02T11:33:10.556Z,92308.00
2023-04-02T11:34:10.507Z,92312.00
2023-04-02T11:35:10.496Z,92312.00
2023-04-02T11:36:10.508Z,92310.00
2023-04-02T11:37:10.546Z,92312.00
2023-04-02T11:38:10.444Z,92310.00
2023-04-02T11:39:17.065Z,92310.00
2023-04-02T11:40:11.427Z,92312.00
2023-04-02T11:41:10.394Z,92312.00
2023-04-02T11:42:10.377Z,92313.00
2023-04-02T11:43:10.363Z,92313.00
2023-04-02T11:44:10.369Z,92313.00
2023-04-02T11:45:10.351Z,92313.00